createdAt,value
2018-10-17T00:01:46.759Z,15.37
2018-10-17T00:04:14.324Z,19.80
2018-10-17T00:06:41.917Z,18.40
2018-10-17T00:09:10.495Z,15.20
2018-10-17T00:11:38.146Z,15.40
2018-10-17T00:14:06.069Z,19.30
2018-10-17T00:16:33.668Z,16.50
2018-10-17T00:19:01.253Z,20.30
2018-10-17T00:21:28.895Z,17.10
2018-10-17T00:23:56.479Z,15.30
2018-10-17T00:26:24.102Z,16.40
2018-10-17T00:28:51.685Z,22.73
2018-10-17T00:31:19.658Z,16.07
2018-10-17T00:33:47.148Z,16.90
2018-10-17T00:36:14.671Z,18.37
2018-10-17T00:38:42.239Z,17.57
2018-10-17T00:41:09.778Z,15.43
2018-10-17T00:43:37.231Z,21.73
2018-10-17T00:46:05.195Z,19.43
2018-10-17T00:48:32.745Z,18.30
2018-10-17T00:51:00.855Z,15.67
2018-10-17T00:53:28.537Z,15.33
2018-10-17T00:55:56.142Z,17.40
2018-10-17T00:58:23.746Z,18.50
2018-10-17T01:00:51.316Z,20.73
2018-10-17T01:03:18.846Z,17.70
2018-10-17T01:05:46.422Z,17.90
2018-10-17T01:08:13.947Z,16.20
2018-10-17T01:10:41.496Z,15.70
2018-10-17T01:13:09.204Z,17.77
2018-10-17T01:15:36.686Z,15.40
2018-10-17T01:18:04.268Z,18.10
2018-10-17T01:20:31.898Z,21.97
2018-10-17T01:22:59.510Z,16.50
2018-10-17T01:25:27.198Z,21.77
2018-10-17T01:27:54.854Z,18.13
2018-10-17T01:30:22.469Z,21.57
2018-10-17T01:32:50.138Z,18.80
2018-10-17T01:35:17.821Z,18.17
2018-10-17T01:37:45.352Z,17.07
2018-10-17T01:40:13.129Z,16.07
2018-10-17T01:42:41.342Z,21.47
2018-10-17T01:45:09.554Z,18.57
2018-10-17T01:47:37.152Z,24.87
2018-10-17T01:50:05.422Z,17.43
2018-10-17T01:52:33.042Z,18.90
2018-10-17T01:55:00.625Z,18.13
2018-10-17T01:57:28.393Z,16.70
2018-10-17T01:59:56.065Z,17.50
2018-10-17T02:02:23.758Z,18.60
2018-10-17T02:04:51.417Z,16.67
2018-10-17T02:07:19.035Z,20.60
2018-10-17T02:09:46.645Z,16.93
2018-10-17T02:12:14.234Z,15.93
2018-10-17T02:14:41.924Z,15.57
2018-10-17T02:17:09.553Z,17.30
2018-10-17T02:19:37.327Z,15.80
2018-10-17T02:22:04.969Z,15.63
2018-10-17T02:24:32.636Z,15.97
2018-10-17T02:27:00.316Z,16.90
2018-10-17T02:29:28.351Z,21.83
2018-10-17T02:31:56.230Z,16.53
2018-10-17T02:34:23.824Z,15.30
2018-10-17T02:36:51.559Z,16.27
2018-10-17T02:39:19.129Z,16.80
2018-10-17T02:41:46.869Z,17.40
2018-10-17T02:44:14.551Z,19.90
2018-10-17T02:46:42.179Z,17.37
2018-10-17T02:49:09.893Z,19.77
2018-10-17T02:51:37.414Z,17.33
2018-10-17T02:54:06.124Z,21.50
2018-10-17T02:56:33.754Z,14.57
2018-10-17T02:59:01.576Z,18.03
2018-10-17T03:01:29.082Z,16.27
2018-10-17T03:03:57.123Z,14.50
2018-10-17T03:06:24.857Z,23.93
2018-10-17T03:08:52.629Z,18.03
2018-10-17T03:11:20.348Z,16.47
2018-10-17T03:13:48.035Z,16.80
2018-10-17T03:16:15.747Z,26.20
2018-10-17T03:18:43.345Z,16.63
2018-10-17T03:21:10.979Z,16.17
2018-10-17T03:23:38.661Z,15.37
2018-10-17T03:26:06.320Z,15.27
2018-10-17T03:28:33.999Z,15.97
2018-10-17T03:31:01.675Z,17.53
2018-10-17T03:33:29.591Z,17.50
2018-10-17T03:35:57.163Z,16.57
2018-10-17T03:38:24.798Z,20.93
2018-10-17T03:40:52.552Z,17.70
2018-10-17T03:43:20.204Z,16.67
2018-10-17T03:45:47.813Z,17.27
2018-10-17T03:48:15.894Z,19.57
2018-10-17T03:50:43.476Z,17.13
2018-10-17T03:53:11.050Z,16.40
2018-10-17T03:55:38.634Z,15.27
2018-10-17T03:58:06.281Z,16.50
2018-10-17T04:00:34.196Z,15.67
2018-10-17T04:03:01.913Z,13.43
2018-10-17T04:05:29.479Z,17.90
2018-10-17T04:07:57.048Z,15.77
2018-10-17T04:10:24.646Z,16.10
2018-10-17T04:12:52.205Z,17.10
2018-10-17T04:15:19.718Z,16.90
2018-10-17T04:17:47.303Z,13.43
2018-10-17T04:20:14.865Z,15.50
2018-10-17T04:22:51.125Z,15.87
2018-10-17T04:25:18.785Z,14.20
2018-10-17T04:27:46.240Z,14.67
2018-10-17T04:30:13.770Z,15.00
2018-10-17T04:32:41.240Z,14.23
2018-10-17T04:35:08.754Z,16.40
2018-10-17T04:37:37.009Z,17.43
2018-10-17T04:40:04.779Z,18.67
2018-10-17T04:42:32.283Z,15.57
2018-10-17T04:44:59.759Z,17.60
2018-10-17T04:47:27.498Z,17.00
2018-10-17T04:49:54.986Z,16.13
2018-10-17T04:52:22.519Z,18.17
2018-10-17T04:54:50.019Z,15.23
2018-10-17T04:57:17.479Z,15.57
2018-10-17T04:59:45.146Z,16.17
2018-10-17T05:02:12.634Z,17.43
2018-10-17T05:04:40.226Z,15.87
2018-10-17T05:07:08.392Z,14.70
2018-10-17T05:09:42.724Z,14.90
2018-10-17T05:12:10.322Z,21.50
2018-10-17T05:14:37.966Z,16.93
2018-10-17T05:17:05.673Z,15.73
2018-10-17T05:19:33.164Z,15.50
2018-10-17T05:22:00.678Z,16.90
2018-10-17T05:24:28.186Z,19.70
2018-10-17T05:26:55.739Z,16.90
2018-10-17T05:29:29.939Z,14.20
2018-10-17T05:31:57.394Z,17.27
2018-10-17T05:34:25.281Z,16.33
2018-10-17T05:36:52.805Z,16.23
2018-10-17T05:39:20.252Z,18.90
2018-10-17T05:41:47.732Z,19.50
2018-10-17T05:44:15.336Z,17.13
2018-10-17T05:46:42.852Z,24.10
2018-10-17T05:49:10.330Z,18.53
2018-10-17T05:51:37.902Z,17.30
2018-10-17T05:54:05.474Z,19.17
2018-10-17T05:56:32.957Z,18.53
2018-10-17T05:59:00.478Z,17.10
2018-10-17T06:01:28.142Z,19.17
2018-10-17T06:03:55.554Z,19.20
2018-10-17T06:06:23.034Z,17.90
2018-10-17T06:08:50.650Z,17.97
2018-10-17T06:11:18.168Z,16.80
2018-10-17T06:13:45.673Z,24.00
2018-10-17T06:16:13.185Z,22.70
2018-10-17T06:18:40.731Z,16.53
2018-10-17T06:21:08.201Z,14.43
2018-10-17T06:23:35.739Z,18.03
2018-10-17T06:26:03.218Z,28.30
2018-10-17T06:28:30.943Z,18.77
2018-10-17T06:30:58.450Z,18.30
2018-10-17T06:33:25.992Z,20.13
2018-10-17T06:35:53.432Z,18.30
2018-10-17T06:38:20.958Z,18.50
2018-10-17T06:40:48.402Z,20.23
2018-10-17T06:43:15.987Z,19.77
2018-10-17T06:45:43.449Z,25.00
2018-10-17T06:48:10.994Z,18.63
2018-10-17T06:50:38.492Z,18.37
2018-10-17T06:53:06.049Z,18.60
2018-10-17T06:55:33.542Z,24.37
2018-10-17T06:58:01.063Z,20.93
2018-10-17T07:00:28.545Z,24.27
2018-10-17T07:02:56.016Z,24.47
2018-10-17T07:05:23.613Z,23.47
2018-10-17T07:07:51.199Z,21.80
2018-10-17T07:10:18.644Z,25.97
2018-10-17T07:12:46.086Z,24.77
2018-10-17T07:15:13.626Z,25.00
2018-10-17T07:17:41.143Z,21.03
2018-10-17T07:20:09.086Z,22.27
2018-10-17T07:22:36.557Z,22.40
2018-10-17T07:25:05.762Z,23.43
2018-10-17T07:27:38.521Z,21.57
2018-10-17T07:30:07.553Z,20.17
2018-10-17T07:32:35.112Z,22.23
2018-10-17T07:35:02.792Z,19.60
2018-10-17T07:37:30.288Z,21.30
2018-10-17T07:39:57.736Z,20.50
2018-10-17T07:42:25.220Z,23.97
2018-10-17T07:44:52.642Z,24.13
2018-10-17T07:47:20.255Z,22.20
2018-10-17T07:49:47.731Z,26.40
2018-10-17T07:52:15.136Z,23.33
2018-10-17T07:54:42.684Z,25.67
2018-10-17T07:57:10.210Z,24.07
2018-10-17T07:59:37.663Z,25.13
2018-10-17T08:02:05.199Z,28.80
2018-10-17T08:04:32.704Z,26.93
2018-10-17T08:07:00.226Z,26.00
2018-10-17T08:09:27.651Z,26.50
2018-10-17T08:11:55.929Z,26.23
2018-10-17T08:14:23.517Z,27.43
2018-10-17T08:16:51.121Z,26.53
2018-10-17T08:19:18.530Z,28.20
2018-10-17T08:21:45.998Z,30.07
2018-10-17T08:24:13.569Z,27.57
2018-10-17T08:26:40.929Z,28.30
2018-10-17T08:29:08.369Z,26.10
2018-10-17T08:31:35.809Z,29.30
2018-10-17T08:34:03.321Z,29.47
2018-10-17T08:36:31.009Z,33.03
2018-10-17T08:38:58.264Z,29.53
2018-10-17T08:41:25.724Z,39.53
2018-10-17T08:43:53.215Z,32.60
2018-10-17T08:46:20.668Z,30.40
2018-10-17T08:48:48.080Z,30.00
2018-10-17T08:51:15.516Z,31.53
2018-10-17T08:53:42.975Z,31.67
2018-10-17T08:56:10.541Z,33.00
2018-10-17T08:58:37.861Z,39.17
2018-10-17T09:01:05.442Z,33.73
2018-10-17T09:03:32.862Z,31.07
2018-10-17T09:06:00.268Z,31.00
2018-10-17T09:08:27.807Z,34.20
2018-10-17T09:10:55.214Z,31.33
2018-10-17T09:13:22.724Z,32.53
2018-10-17T09:15:50.186Z,31.00
2018-10-17T09:18:17.832Z,30.97
2018-10-17T09:20:45.416Z,31.67
2018-10-17T09:23:12.779Z,29.50
2018-10-17T09:25:40.501Z,31.80
2018-10-17T09:28:08.017Z,31.80
2018-10-17T09:30:35.451Z,29.47
2018-10-17T09:33:02.971Z,28.00
2018-10-17T09:35:30.524Z,28.50
2018-10-17T09:37:58.212Z,29.23
2018-10-17T09:40:25.771Z,31.57
2018-10-17T09:42:53.231Z,30.50
2018-10-17T09:45:20.762Z,28.67
2018-10-17T09:47:48.352Z,28.37
2018-10-17T09:50:15.824Z,29.40
2018-10-17T09:52:43.264Z,27.43
2018-10-17T09:55:10.664Z,28.37
2018-10-17T09:57:38.090Z,27.60
2018-10-17T10:00:11.706Z,28.20
2018-10-17T10:02:39.088Z,28.33
2018-10-17T10:05:06.526Z,32.37
2018-10-17T10:07:34.066Z,29.90
2018-10-17T10:10:01.537Z,34.73
2018-10-17T10:12:28.972Z,28.60
2018-10-17T10:14:56.540Z,30.03
2018-10-17T10:17:24.088Z,29.97
2018-10-17T10:19:51.429Z,30.23
2018-10-17T10:22:18.881Z,29.93
2018-10-17T10:24:46.465Z,29.93
2018-10-17T10:27:13.880Z,31.57
2018-10-17T10:29:41.391Z,29.90
2018-10-17T10:32:09.959Z,30.43
2018-10-17T10:34:37.354Z,29.67
2018-10-17T10:37:05.029Z,29.20
2018-10-17T10:39:32.447Z,31.47
2018-10-17T10:41:59.938Z,33.53
2018-10-17T10:44:27.344Z,32.70
2018-10-17T10:46:54.886Z,31.03
2018-10-17T10:49:22.334Z,33.03
2018-10-17T10:51:49.826Z,32.77
2018-10-17T10:54:17.353Z,31.87
2018-10-17T10:56:44.763Z,34.20
2018-10-17T10:59:12.355Z,31.00
2018-10-17T11:01:39.739Z,31.17
2018-10-17T11:04:07.257Z,32.23
2018-10-17T11:06:34.779Z,33.90
2018-10-17T11:09:02.189Z,31.97
2018-10-17T11:11:29.630Z,33.50
2018-10-17T11:13:57.126Z,29.80
2018-10-17T11:16:24.595Z,30.67
2018-10-17T11:18:52.049Z,30.37
2018-10-17T11:21:19.437Z,30.83
2018-10-17T11:23:46.837Z,31.60
2018-10-17T11:26:14.230Z,33.20
2018-10-17T11:28:41.649Z,30.70
2018-10-17T11:31:09.066Z,31.30
2018-10-17T11:33:36.507Z,31.17
2018-10-17T11:36:03.982Z,30.30
2018-10-17T11:38:31.383Z,37.60
2018-10-17T11:40:58.826Z,30.90
2018-10-17T11:43:26.224Z,29.70
2018-10-17T11:45:53.771Z,28.80
2018-10-17T11:48:21.423Z,29.20
2018-10-17T11:50:48.935Z,30.00
2018-10-17T11:53:16.500Z,30.80
2018-10-17T11:55:43.880Z,28.80
2018-10-17T11:58:11.445Z,31.80
2018-10-17T12:00:38.828Z,28.57
2018-10-17T12:03:06.331Z,27.77
2018-10-17T12:05:34.217Z,28.20
2018-10-17T12:08:01.395Z,27.90
2018-10-17T12:10:28.852Z,26.60
2018-10-17T12:12:56.379Z,28.33
2018-10-17T12:15:23.856Z,24.67
2018-10-17T12:17:51.415Z,27.53
2018-10-17T12:20:18.850Z,26.93
2018-10-17T12:22:46.221Z,30.03
2018-10-17T12:25:14.113Z,28.87
2018-10-17T12:27:41.633Z,26.63
2018-10-17T12:30:11.491Z,26.40
2018-10-17T12:32:38.929Z,26.20
2018-10-17T12:35:06.768Z,29.80
2018-10-17T12:37:35.209Z,28.90
2018-10-17T12:40:02.881Z,25.67
2018-10-17T12:42:30.344Z,23.77
2018-10-17T12:44:57.887Z,24.43
2018-10-17T12:47:25.287Z,23.93
2018-10-17T12:49:53.016Z,24.23
2018-10-17T12:52:20.433Z,21.63
2018-10-17T12:54:47.948Z,24.53
2018-10-17T12:57:15.463Z,21.80
2018-10-17T12:59:43.947Z,22.00
2018-10-17T13:02:11.666Z,20.30
2018-10-17T13:04:39.599Z,21.83
2018-10-17T13:07:08.237Z,20.73
2018-10-17T13:09:35.936Z,20.13
2018-10-17T13:12:03.632Z,23.37
2018-10-17T13:14:32.157Z,19.73
2018-10-17T13:16:59.970Z,20.50
2018-10-17T13:19:27.658Z,19.97
2018-10-17T13:21:55.129Z,19.53
2018-10-17T13:24:22.698Z,18.60
2018-10-17T13:26:50.512Z,19.70
2018-10-17T13:29:18.098Z,18.87
2018-10-17T13:31:45.613Z,22.13
2018-10-17T13:34:13.563Z,20.07
2018-10-17T13:36:41.163Z,20.23
2018-10-17T13:39:11.257Z,19.77
2018-10-17T13:41:39.341Z,19.27
2018-10-17T13:44:07.706Z,19.97
2018-10-17T13:46:35.315Z,19.17
2018-10-17T13:49:03.089Z,19.13
2018-10-17T13:51:30.648Z,22.07
2018-10-17T13:53:58.356Z,18.30
2018-10-17T13:56:25.937Z,19.60
2018-10-17T13:58:53.447Z,19.40
2018-10-17T14:01:21.222Z,19.70
2018-10-17T14:03:48.857Z,21.10
2018-10-17T14:06:16.937Z,19.37
2018-10-17T14:08:44.815Z,18.93
2018-10-17T14:11:12.426Z,20.20
2018-10-17T14:13:40.393Z,18.83
2018-10-17T14:16:09.324Z,19.43
2018-10-17T14:18:37.079Z,18.77
2018-10-17T14:21:04.920Z,17.00
2018-10-17T14:23:32.665Z,16.53
2018-10-17T14:26:00.464Z,15.30
2018-10-17T14:28:28.164Z,19.67
2018-10-17T14:30:56.010Z,19.47
2018-10-17T14:33:23.882Z,17.87
2018-10-17T14:35:51.637Z,17.33
2018-10-17T14:38:19.298Z,15.43
2018-10-17T14:40:47.695Z,18.13
2018-10-17T14:43:15.798Z,16.40
2018-10-17T14:45:43.555Z,16.57
2018-10-17T14:48:11.426Z,17.73
2018-10-17T14:50:39.155Z,16.90
2018-10-17T14:53:09.441Z,16.87
2018-10-17T14:55:38.255Z,19.47
2018-10-17T14:58:06.454Z,17.67
2018-10-17T15:00:34.374Z,17.67
2018-10-17T15:03:02.345Z,16.43
2018-10-17T15:05:30.518Z,14.63
2018-10-17T15:07:59.317Z,16.83
2018-10-17T15:10:31.417Z,15.20
2018-10-17T15:12:59.286Z,16.70
2018-10-17T15:15:28.536Z,15.80
2018-10-17T15:17:56.786Z,19.33
2018-10-17T15:20:24.690Z,17.23
2018-10-17T15:22:53.620Z,16.07
2018-10-17T15:25:21.495Z,15.30
2018-10-17T15:27:49.317Z,15.53
2018-10-17T15:30:17.616Z,13.63
2018-10-17T15:32:45.720Z,18.53
2018-10-17T15:35:13.465Z,15.60
2018-10-17T15:37:41.462Z,17.10
2018-10-17T15:40:09.280Z,14.23
2018-10-17T15:42:37.094Z,15.43
2018-10-17T15:45:06.501Z,13.03
2018-10-17T15:47:34.508Z,14.83
2018-10-17T15:50:02.291Z,14.30
2018-10-17T15:52:30.101Z,13.27
2018-10-17T15:54:57.807Z,14.83
2018-10-17T15:57:25.543Z,15.37
2018-10-17T16:02:59.455Z,16.57
2018-10-17T16:05:27.188Z,14.80
2018-10-17T16:07:54.777Z,14.43
2018-10-17T16:10:22.140Z,13.80
2018-10-17T16:12:49.541Z,15.53
2018-10-17T16:15:16.952Z,19.33
2018-10-17T16:17:44.321Z,16.60
2018-10-17T16:20:12.524Z,15.60
2018-10-17T16:22:40.134Z,16.07
2018-10-17T16:25:08.156Z,15.50
2018-10-17T16:27:35.582Z,15.67
2018-10-17T16:30:03.417Z,19.90
2018-10-17T16:32:34.182Z,54.87
2018-10-17T16:35:02.350Z,29.83
2018-10-17T16:50:24.373Z,21.67
2018-10-17T16:52:52.024Z,24.20
2018-10-17T16:55:19.494Z,24.43
2018-10-17T16:57:46.949Z,23.97
2018-10-17T17:00:14.443Z,21.90
2018-10-17T17:02:41.794Z,30.43
2018-10-17T17:05:11.555Z,30.93
2018-10-17T17:07:39.257Z,27.83
2018-10-17T17:10:07.194Z,29.73
2018-10-17T17:12:34.594Z,28.73
2018-10-17T17:15:02.261Z,33.30
2018-10-17T17:17:29.658Z,27.43
2018-10-17T17:19:57.320Z,34.43
2018-10-17T17:22:24.755Z,43.93
2018-10-17T17:24:52.166Z,35.43
2018-10-17T17:27:20.029Z,50.93
2018-10-17T17:29:47.460Z,30.40
2018-10-17T17:32:14.788Z,29.00
2018-10-17T17:34:42.729Z,36.10
2018-10-17T17:37:10.142Z,36.43
2018-10-17T17:39:37.621Z,36.50
2018-10-17T17:42:05.139Z,40.77
2018-10-17T17:44:32.635Z,37.70
2018-10-17T17:46:59.988Z,33.43
2018-10-17T17:49:27.488Z,31.37
2018-10-17T17:51:55.087Z,26.30
2018-10-17T17:54:22.606Z,24.43
2018-10-17T17:56:49.990Z,34.77
2018-10-17T17:59:17.485Z,24.60
2018-10-17T18:01:44.971Z,29.43
2018-10-17T18:04:12.398Z,27.27
2018-10-17T18:06:39.928Z,25.20
2018-10-17T18:09:08.754Z,23.77
2018-10-17T18:11:36.238Z,28.87
2018-10-17T18:14:03.973Z,28.20
2018-10-17T18:16:31.406Z,32.23
2018-10-17T18:18:58.941Z,28.57
2018-10-17T18:21:31.907Z,24.70
2018-10-17T18:23:59.396Z,39.53
2018-10-17T18:26:26.879Z,28.57
2018-10-17T18:28:54.407Z,25.97
2018-10-17T18:31:21.934Z,25.57
2018-10-17T18:33:49.470Z,29.07
2018-10-17T18:36:17.031Z,25.13
2018-10-17T18:38:44.561Z,26.23
2018-10-17T18:41:12.073Z,26.60
2018-10-17T18:43:39.654Z,25.27
2018-10-17T18:46:07.494Z,26.03
2018-10-17T18:48:35.040Z,25.97
2018-10-17T18:51:02.570Z,23.50
2018-10-17T18:53:30.043Z,25.17
2018-10-17T18:55:57.623Z,24.30
2018-10-17T18:58:25.244Z,24.20
2018-10-17T19:00:52.687Z,26.97
2018-10-17T19:03:20.301Z,27.13
2018-10-17T19:05:47.788Z,30.67
2018-10-17T19:08:15.377Z,27.23
2018-10-17T19:10:43.137Z,34.20
2018-10-17T19:13:10.719Z,28.50
2018-10-17T19:15:38.357Z,29.30
2018-10-17T19:18:06.007Z,29.00
2018-10-17T19:20:33.780Z,30.77
2018-10-17T19:23:01.441Z,31.40
2018-10-17T19:25:28.838Z,35.60
2018-10-17T19:27:56.417Z,26.93
2018-10-17T19:30:24.509Z,31.27
2018-10-17T19:32:54.211Z,29.00
2018-10-17T19:35:22.312Z,29.57
2018-10-17T19:37:50.373Z,27.43
2018-10-17T19:40:18.226Z,31.50
2018-10-17T19:42:46.427Z,28.57
2018-10-17T19:45:14.509Z,49.53
2018-10-17T19:47:42.596Z,118.90
2018-10-17T19:50:10.597Z,57.73
2018-10-17T19:52:38.347Z,60.03
2018-10-17T19:55:07.970Z,90.83
2018-10-17T19:57:35.777Z,130.53
2018-10-17T20:00:04.349Z,131.57
2018-10-17T20:02:33.615Z,120.60
2018-10-17T20:05:01.235Z,108.17
2018-10-17T20:07:30.005Z,80.80
2018-10-17T20:09:57.807Z,47.13
2018-10-17T20:12:26.203Z,42.00
2018-10-17T20:14:54.122Z,42.10
2018-10-17T20:17:22.488Z,28.20
2018-10-17T20:19:50.399Z,26.90
2018-10-17T20:22:18.816Z,24.87
2018-10-17T20:24:46.860Z,22.50
2018-10-17T20:27:22.599Z,24.70
2018-10-17T20:29:50.368Z,26.13
2018-10-17T20:32:18.036Z,24.43
2018-10-17T20:34:46.023Z,26.33
2018-10-17T20:37:13.375Z,21.93
2018-10-17T20:39:40.702Z,21.73
2018-10-17T20:42:08.105Z,23.90
2018-10-17T20:44:35.610Z,22.20
2018-10-17T20:47:08.552Z,25.33
2018-10-17T20:49:37.223Z,28.17
2018-10-17T20:52:04.634Z,28.50
2018-10-17T20:54:32.123Z,31.67
2018-10-17T20:56:59.503Z,22.93
2018-10-17T20:59:26.902Z,24.07
2018-10-17T21:01:54.389Z,25.47
2018-10-17T21:04:21.776Z,26.60
2018-10-17T21:06:49.211Z,26.57
2018-10-17T21:09:16.591Z,24.27
2018-10-17T21:11:44.018Z,23.67
2018-10-17T21:14:11.700Z,21.93
2018-10-17T21:16:40.033Z,24.90
2018-10-17T21:19:07.766Z,21.43
2018-10-17T21:21:35.155Z,26.17
2018-10-17T21:24:02.603Z,23.83
2018-10-17T21:26:30.053Z,24.43
2018-10-17T21:28:57.381Z,23.27
2018-10-17T21:31:24.768Z,21.80
2018-10-17T21:33:52.055Z,25.20
2018-10-17T21:36:19.706Z,23.80
2018-10-17T21:38:47.132Z,29.43
2018-10-17T21:41:14.517Z,21.93
2018-10-17T21:43:41.983Z,18.73
2018-10-17T21:46:09.362Z,27.87
2018-10-17T21:48:36.737Z,18.90
2018-10-17T21:51:04.392Z,18.97
2018-10-17T21:53:31.774Z,20.37
2018-10-17T21:55:59.157Z,22.43
2018-10-17T21:58:26.517Z,21.43
2018-10-17T22:00:53.814Z,20.40
2018-10-17T22:03:21.191Z,19.43
2018-10-17T22:05:48.586Z,22.13
2018-10-17T22:08:16.024Z,18.67
2018-10-17T22:10:43.383Z,17.50
2018-10-17T22:13:10.739Z,23.37
2018-10-17T22:15:41.254Z,16.70
2018-10-17T22:18:08.641Z,20.17
2018-10-17T22:20:36.017Z,20.10
2018-10-17T22:23:03.374Z,17.50
2018-10-17T22:25:30.814Z,19.63
2018-10-17T22:27:58.347Z,21.40
2018-10-17T22:30:25.741Z,18.90
2018-10-17T22:32:53.137Z,18.60
2018-10-17T22:35:20.458Z,19.70
2018-10-17T22:37:47.835Z,19.50
2018-10-17T22:40:15.193Z,22.83
2018-10-17T22:42:42.595Z,21.97
2018-10-17T22:45:09.919Z,20.57
2018-10-17T22:47:37.348Z,20.83
2018-10-17T22:50:06.099Z,19.43
2018-10-17T22:52:33.474Z,18.77
2018-10-17T22:55:00.866Z,19.60
2018-10-17T22:57:28.249Z,17.90
2018-10-17T22:59:55.644Z,19.50
2018-10-17T23:02:22.978Z,18.40
2018-10-17T23:04:50.339Z,23.17
2018-10-17T23:07:17.734Z,21.73
2018-10-17T23:09:45.113Z,18.27
2018-10-17T23:12:12.485Z,24.37
2018-10-17T23:14:39.795Z,20.93
2018-10-17T23:17:07.146Z,18.83
2018-10-17T23:19:34.517Z,19.00
2018-10-17T23:22:01.913Z,21.63
2018-10-17T23:24:29.304Z,20.23
2018-10-17T23:26:56.740Z,22.10
2018-10-17T23:29:24.145Z,21.10
2018-10-17T23:31:51.582Z,20.40
2018-10-17T23:34:18.959Z,23.67
2018-10-17T23:36:46.309Z,22.40
2018-10-17T23:39:13.634Z,20.60
2018-10-17T23:41:41.060Z,19.97
2018-10-17T23:44:08.676Z,20.33
2018-10-17T23:46:35.982Z,21.60
2018-10-17T23:49:03.482Z,19.97
2018-10-17T23:51:30.886Z,19.97
2018-10-17T23:53:58.270Z,20.73
2018-10-17T23:56:25.643Z,23.63
2018-10-17T23:58:53.013Z,18.50
